createdAt,value
2023-05-05T00:02:09.546Z,17.05
2023-05-05T00:04:37.525Z,16.97
2023-05-05T00:07:05.571Z,16.91
2023-05-05T00:09:33.465Z,16.88
2023-05-05T00:12:01.423Z,16.88
2023-05-05T00:14:29.669Z,16.83
2023-05-05T00:16:57.672Z,16.79
2023-05-05T00:19:27.005Z,16.81
2023-05-05T00:21:54.911Z,16.78
2023-05-05T00:24:22.774Z,16.79
2023-05-05T00:26:51.139Z,16.80
2023-05-05T00:29:19.072Z,16.82
2023-05-05T00:31:47.112Z,16.82
2023-05-05T00:34:15.029Z,16.80
2023-05-05T00:36:44.345Z,16.74
2023-05-05T00:39:12.216Z,16.74
2023-05-05T00:41:40.893Z,16.74
2023-05-05T00:44:08.878Z,16.76
2023-05-05T00:46:37.027Z,16.69
2023-05-05T00:49:05.494Z,16.70
2023-05-05T00:51:33.833Z,16.77
2023-05-05T00:54:03.511Z,16.71
2023-05-05T00:56:31.973Z,16.72
2023-05-05T00:59:00.876Z,16.73
2023-05-05T01:01:28.914Z,16.74
2023-05-05T01:03:57.466Z,16.73
2023-05-05T01:06:43.115Z,16.69
2023-05-05T01:09:28.062Z,16.64
2023-05-05T01:12:06.477Z,16.63
2023-05-05T01:14:40.886Z,16.61
2023-05-05T01:17:17.289Z,16.61
2023-05-05T01:20:03.063Z,16.56
2023-05-05T01:22:38.986Z,16.54
2023-05-05T01:25:56.001Z,16.51
2023-05-05T01:28:36.059Z,16.50
2023-05-05T01:31:35.131Z,16.44
2023-05-05T01:34:08.562Z,16.43
2023-05-05T01:36:42.257Z,16.45
2023-05-05T01:39:13.961Z,16.92
2023-05-05T01:41:45.025Z,16.66
2023-05-05T01:44:15.452Z,16.56
2023-05-05T01:46:44.797Z,16.51
2023-05-05T01:49:13.529Z,16.49
2023-05-05T01:51:42.652Z,16.39
2023-05-05T01:54:11.499Z,16.32
2023-05-05T01:56:42.242Z,16.28
2023-05-05T01:59:11.686Z,16.23
2023-05-05T02:01:44.689Z,16.68
2023-05-05T02:04:15.529Z,16.41
2023-05-05T02:06:45.545Z,16.29
2023-05-05T02:09:15.001Z,16.24
2023-05-05T02:11:43.400Z,16.02
2023-05-05T02:14:13.281Z,15.19
2023-05-05T02:16:43.545Z,15.49
2023-05-05T02:19:13.284Z,15.14
2023-05-05T02:21:43.206Z,15.09
2023-05-05T02:24:11.511Z,15.23
2023-05-05T02:26:41.177Z,15.41
2023-05-05T02:29:15.475Z,15.51
2023-05-05T02:31:48.593Z,15.62
2023-05-05T02:34:26.878Z,15.65
2023-05-05T02:36:59.571Z,15.59
2023-05-05T02:39:33.969Z,16.21
2023-05-05T02:42:09.054Z,15.90
2023-05-05T02:44:39.739Z,15.79
2023-05-05T02:47:08.990Z,15.76
2023-05-05T02:49:37.904Z,15.71
2023-05-05T02:52:07.340Z,15.65
2023-05-05T02:54:38.481Z,15.64
2023-05-05T02:57:19.453Z,15.61
2023-05-05T02:59:59.719Z,15.65
2023-05-05T03:02:36.598Z,15.67
2023-05-05T03:05:12.745Z,15.66
2023-05-05T03:07:54.624Z,15.70
2023-05-05T03:10:30.100Z,15.59
2023-05-05T03:13:03.459Z,15.55
2023-05-05T03:15:41.525Z,15.56
2023-05-05T03:18:13.194Z,15.55
2023-05-05T03:20:45.074Z,15.50
2023-05-05T03:23:18.381Z,15.51
2023-05-05T03:25:49.478Z,15.51
2023-05-05T03:28:35.984Z,16.01
2023-05-05T03:31:10.791Z,15.73
2023-05-05T03:33:40.176Z,15.56
2023-05-05T03:36:08.191Z,15.50
2023-05-05T03:38:37.733Z,15.47
2023-05-05T03:41:05.986Z,15.97
2023-05-05T03:43:34.556Z,15.71
2023-05-05T03:46:03.173Z,15.59
2023-05-05T03:48:31.732Z,15.54
2023-05-05T03:50:59.877Z,15.98
2023-05-05T03:53:30.680Z,15.63
2023-05-05T03:56:00.179Z,15.47
2023-05-05T03:58:28.262Z,15.39
2023-05-05T04:00:56.198Z,15.35
2023-05-05T04:03:24.623Z,15.38
2023-05-05T04:05:52.878Z,15.41
2023-05-05T04:08:21.677Z,15.43
2023-05-05T04:10:49.672Z,15.42
2023-05-05T04:13:18.965Z,15.43
2023-05-05T04:15:47.548Z,15.42
2023-05-05T04:18:16.717Z,15.45
2023-05-05T04:20:44.902Z,15.46
2023-05-05T04:23:13.358Z,15.46
2023-05-05T04:25:42.272Z,15.48
2023-05-05T04:28:11.369Z,15.47
2023-05-05T04:30:41.723Z,15.44
2023-05-05T04:33:10.537Z,15.41
2023-05-05T04:35:38.526Z,15.44
2023-05-05T04:38:06.469Z,15.48
2023-05-05T04:40:35.130Z,15.52
2023-05-05T04:43:03.104Z,15.52
2023-05-05T04:45:31.189Z,15.24
2023-05-05T04:48:00.566Z,15.27
2023-05-05T04:50:28.653Z,15.34
2023-05-05T04:52:56.679Z,15.43
2023-05-05T04:55:25.473Z,15.47
2023-05-05T04:57:53.396Z,15.50
2023-05-05T05:00:21.724Z,15.50
2023-05-05T05:02:49.753Z,15.42
2023-05-05T05:05:19.380Z,15.36
2023-05-05T05:07:47.420Z,15.30
2023-05-05T05:10:15.817Z,15.29
2023-05-05T05:12:43.780Z,15.37
2023-05-05T05:15:14.045Z,15.44
2023-05-05T05:17:42.423Z,15.49
2023-05-05T05:20:11.167Z,15.55
2023-05-05T05:22:42.161Z,15.59
2023-05-05T05:25:14.673Z,15.62
2023-05-05T05:27:43.268Z,15.68
2023-05-05T05:30:12.989Z,15.69
2023-05-05T05:32:41.332Z,15.66
2023-05-05T05:35:11.292Z,15.56
2023-05-05T05:37:41.002Z,15.50
2023-05-05T05:40:10.493Z,15.51
2023-05-05T05:42:40.027Z,15.66
2023-05-05T05:45:09.595Z,15.80
2023-05-05T05:47:38.223Z,15.87
2023-05-05T05:50:08.205Z,15.96
2023-05-05T05:52:37.375Z,15.98
2023-05-05T05:55:10.178Z,15.99
2023-05-05T05:57:39.780Z,16.03
2023-05-05T06:00:11.096Z,16.09
2023-05-05T06:02:44.406Z,16.10
2023-05-05T06:05:15.584Z,16.11
2023-05-05T06:07:46.369Z,16.70
2023-05-05T06:10:27.471Z,16.36
2023-05-05T06:13:01.616Z,16.30
2023-05-05T06:15:30.582Z,16.31
2023-05-05T06:17:58.749Z,16.35
2023-05-05T06:20:27.688Z,16.32
2023-05-05T06:22:56.259Z,16.34
2023-05-05T06:25:26.310Z,16.39
2023-05-05T06:27:54.242Z,16.46
2023-05-05T06:30:22.180Z,16.65
2023-05-05T06:32:50.090Z,16.55
2023-05-05T06:35:18.481Z,16.46
2023-05-05T06:37:46.373Z,16.46
2023-05-05T06:40:14.401Z,16.61
2023-05-05T06:42:43.871Z,17.27
2023-05-05T06:45:17.536Z,17.05
2023-05-05T06:47:45.542Z,17.05
2023-05-05T06:50:13.634Z,17.12
2023-05-05T06:52:42.608Z,17.16
2023-05-05T06:55:11.263Z,17.20
2023-05-05T06:57:39.200Z,17.30
2023-05-05T07:00:11.528Z,17.43
2023-05-05T07:02:39.965Z,17.56
2023-05-05T07:05:08.589Z,17.95
2023-05-05T07:07:37.015Z,17.93
2023-05-05T07:10:05.325Z,17.86
2023-05-05T07:12:33.328Z,17.83
2023-05-05T07:15:09.318Z,17.71
2023-05-05T07:17:45.298Z,17.55
2023-05-05T07:20:13.922Z,17.59
2023-05-05T07:22:41.872Z,18.05
2023-05-05T07:25:10.248Z,18.16
2023-05-05T07:27:38.437Z,17.91
2023-05-05T07:30:12.335Z,18.03
2023-05-05T07:32:42.418Z,17.57
2023-05-05T07:35:11.886Z,17.45
2023-05-05T07:37:39.872Z,17.41
2023-05-05T07:40:09.253Z,17.51
2023-05-05T07:42:37.482Z,17.64
2023-05-05T07:45:06.851Z,18.14
2023-05-05T07:47:34.953Z,17.67
2023-05-05T07:50:02.916Z,17.48
2023-05-05T07:52:45.020Z,17.51
2023-05-05T07:55:16.272Z,17.57
2023-05-05T07:57:44.304Z,17.60
2023-05-05T08:00:14.404Z,18.24
2023-05-05T08:02:44.114Z,18.21
2023-05-05T08:05:12.813Z,18.37
2023-05-05T08:07:42.195Z,18.44
2023-05-05T08:10:12.388Z,18.42
2023-05-05T08:12:40.910Z,18.46
2023-05-05T08:15:09.653Z,18.43
2023-05-05T08:17:46.042Z,18.52
2023-05-05T08:20:14.469Z,19.00
2023-05-05T08:22:43.907Z,18.63
2023-05-05T08:25:12.996Z,18.50
2023-05-05T08:27:42.684Z,18.50
2023-05-05T08:30:11.933Z,18.60
2023-05-05T08:32:40.136Z,18.65
2023-05-05T08:35:09.044Z,18.53
2023-05-05T08:37:37.240Z,18.34
2023-05-05T08:40:07.704Z,18.35
2023-05-05T08:42:38.537Z,18.34
2023-05-05T08:45:09.276Z,18.35
2023-05-05T08:47:38.863Z,18.32
2023-05-05T08:50:10.637Z,18.42
2023-05-05T08:52:41.334Z,18.51
2023-05-05T08:55:16.198Z,18.66
2023-05-05T08:57:50.559Z,18.64
2023-05-05T09:00:20.902Z,18.62
2023-05-05T09:02:49.956Z,18.61
2023-05-05T09:05:18.232Z,18.44
2023-05-05T09:07:47.363Z,18.50
2023-05-05T09:10:16.899Z,18.45
2023-05-05T09:12:45.029Z,18.56
2023-05-05T09:15:15.610Z,18.82
2023-05-05T09:17:44.060Z,18.76
2023-05-05T09:20:13.494Z,18.79
2023-05-05T09:22:42.896Z,18.94
2023-05-05T09:25:12.555Z,19.04
2023-05-05T09:27:43.464Z,19.11
2023-05-05T09:30:13.232Z,19.25
2023-05-05T09:32:46.050Z,19.34
2023-05-05T09:35:14.451Z,19.29
2023-05-05T09:37:42.431Z,19.13
2023-05-05T09:40:11.892Z,19.05
2023-05-05T09:42:41.967Z,19.01
2023-05-05T09:45:27.727Z,18.88
2023-05-05T09:47:59.596Z,18.98
2023-05-05T09:50:30.723Z,19.09
2023-05-05T09:53:00.384Z,19.14
2023-05-05T09:55:28.450Z,19.15
2023-05-05T09:57:57.935Z,19.14
2023-05-05T10:00:39.111Z,19.03
2023-05-05T10:03:07.206Z,19.08
2023-05-05T10:05:48.307Z,19.22
2023-05-05T10:08:16.727Z,19.28
2023-05-05T10:10:48.822Z,19.42
2023-05-05T10:13:20.368Z,19.63
2023-05-05T10:15:50.539Z,19.82
2023-05-05T10:18:22.232Z,19.60
2023-05-05T10:20:57.134Z,19.70
2023-05-05T10:23:33.476Z,19.75
2023-05-05T10:26:04.454Z,19.77
2023-05-05T10:28:38.510Z,19.62
2023-05-05T10:31:24.170Z,19.84
2023-05-05T10:33:55.531Z,19.85
2023-05-05T10:36:25.710Z,19.92
2023-05-05T10:38:57.093Z,19.79
2023-05-05T10:41:26.185Z,19.90
2023-05-05T10:43:57.479Z,20.08
2023-05-05T10:46:26.673Z,20.27
2023-05-05T10:49:00.947Z,20.29
2023-05-05T10:51:41.513Z,20.31
2023-05-05T10:54:17.068Z,20.29
2023-05-05T10:56:45.218Z,20.19
2023-05-05T10:59:43.130Z,20.23
2023-05-05T11:02:22.003Z,20.29
2023-05-05T11:05:21.589Z,20.34
2023-05-05T11:07:51.129Z,20.38
2023-05-05T11:10:21.107Z,20.48
2023-05-05T11:13:20.657Z,20.52
2023-05-05T11:15:52.258Z,20.35
2023-05-05T11:18:35.934Z,20.49
2023-05-05T11:21:18.401Z,20.37
2023-05-05T11:23:49.010Z,20.42
2023-05-05T11:26:18.165Z,20.60
2023-05-05T11:29:05.056Z,20.72
2023-05-05T11:31:34.574Z,20.87
2023-05-05T11:34:24.938Z,20.77
2023-05-05T11:36:54.165Z,20.77
2023-05-05T11:39:28.761Z,20.75
2023-05-05T11:42:22.473Z,21.22
2023-05-05T11:44:51.190Z,21.50
2023-05-05T11:47:31.669Z,21.60
2023-05-05T11:50:00.472Z,21.65
2023-05-05T11:52:28.660Z,21.69
2023-05-05T11:55:02.437Z,21.82
2023-05-05T11:57:31.740Z,21.96
2023-05-05T12:00:02.078Z,21.89
2023-05-05T12:02:34.123Z,21.95
2023-05-05T12:05:02.718Z,21.89
2023-05-05T12:07:32.204Z,21.95
2023-05-05T12:10:00.894Z,21.57
2023-05-05T12:12:36.981Z,21.48
2023-05-05T12:15:06.451Z,21.43
2023-05-05T12:17:45.098Z,21.64
2023-05-05T12:20:13.916Z,21.94
2023-05-05T12:22:42.031Z,22.09
2023-05-05T12:25:10.874Z,21.77
2023-05-05T12:27:38.936Z,21.97
2023-05-05T12:30:18.075Z,22.05
2023-05-05T12:32:47.679Z,22.20
2023-05-05T12:35:16.107Z,22.26
2023-05-05T12:37:44.907Z,21.94
2023-05-05T12:40:48.339Z,22.15
2023-05-05T12:43:30.794Z,22.11
2023-05-05T12:46:06.970Z,22.19
2023-05-05T12:48:38.011Z,22.05
2023-05-05T12:51:16.817Z,22.11
2023-05-05T12:53:44.970Z,22.40
2023-05-05T12:56:36.308Z,22.30
2023-05-05T12:59:06.045Z,22.07
2023-05-05T13:01:35.122Z,22.31
2023-05-05T13:04:09.184Z,22.60
2023-05-05T13:06:37.822Z,22.79
2023-05-05T13:09:06.566Z,22.78
2023-05-05T13:11:38.517Z,22.87
2023-05-05T13:14:08.160Z,22.65
2023-05-05T13:16:36.185Z,22.58
2023-05-05T13:19:04.172Z,22.50
2023-05-05T13:21:33.736Z,22.61
2023-05-05T13:24:19.060Z,22.58
2023-05-05T13:26:49.632Z,22.75
2023-05-05T13:29:18.047Z,22.89
2023-05-05T13:31:46.817Z,23.16
2023-05-05T13:34:14.946Z,23.37
2023-05-05T13:36:44.246Z,23.32
2023-05-05T13:39:12.689Z,23.38
2023-05-05T13:41:40.716Z,23.33
2023-05-05T13:44:08.820Z,23.05
2023-05-05T13:46:36.951Z,23.25
2023-05-05T13:49:04.913Z,23.44
2023-05-05T13:51:34.709Z,23.55
2023-05-05T13:54:04.330Z,23.72
2023-05-05T13:56:32.432Z,23.95
2023-05-05T13:59:00.930Z,23.95
2023-05-05T14:01:29.431Z,23.36
2023-05-05T14:03:58.007Z,23.50
2023-05-05T14:06:26.512Z,23.43
2023-05-05T14:08:55.025Z,23.62
2023-05-05T14:11:24.398Z,23.60
2023-05-05T14:13:52.807Z,23.70
2023-05-05T14:16:20.805Z,23.87
2023-05-05T14:18:48.772Z,24.03
2023-05-05T14:21:16.808Z,23.89
2023-05-05T14:23:44.772Z,23.55
2023-05-05T14:26:12.714Z,23.61
2023-05-05T14:28:42.325Z,23.84
2023-05-05T14:31:11.177Z,23.81
2023-05-05T14:33:39.167Z,24.01
2023-05-05T14:36:07.726Z,24.08
2023-05-05T14:38:35.645Z,24.35
2023-05-05T14:41:03.727Z,24.53
2023-05-05T14:43:31.608Z,24.66
2023-05-05T14:46:06.613Z,24.77
2023-05-05T14:48:35.571Z,24.77
2023-05-05T14:51:04.292Z,24.43
2023-05-05T14:53:32.313Z,24.35
2023-05-05T14:56:02.173Z,24.76
2023-05-05T14:58:31.154Z,24.78
2023-05-05T15:01:00.941Z,24.94
2023-05-05T15:03:29.052Z,25.03
2023-05-05T15:05:57.097Z,24.53
2023-05-05T15:08:25.199Z,24.73
2023-05-05T15:10:53.125Z,24.47
2023-05-05T15:13:21.170Z,24.63
2023-05-05T15:15:50.055Z,24.74
2023-05-05T15:18:20.088Z,24.87
2023-05-05T15:20:48.029Z,24.46
2023-05-05T15:23:16.181Z,23.77
2023-05-05T15:25:44.146Z,23.54
2023-05-05T15:28:12.087Z,23.51
2023-05-05T15:30:40.040Z,23.48
2023-05-05T15:33:08.090Z,23.50
2023-05-05T15:35:37.471Z,22.90
2023-05-05T15:38:05.566Z,22.74
2023-05-05T15:40:33.588Z,22.71
2023-05-05T15:43:01.584Z,23.18
2023-05-05T15:45:29.663Z,23.76
2023-05-05T15:47:57.668Z,23.89
2023-05-05T15:50:26.000Z,24.03
2023-05-05T15:52:57.006Z,23.82
2023-05-05T15:55:25.233Z,24.15
2023-05-05T15:57:53.255Z,23.98
2023-05-05T16:00:22.056Z,24.21
2023-05-05T16:02:50.144Z,24.38
2023-05-05T16:05:18.771Z,24.35
2023-05-05T16:07:47.637Z,24.35
2023-05-05T16:10:18.265Z,24.33
2023-05-05T16:12:46.272Z,24.28
2023-05-05T16:15:14.228Z,24.54
2023-05-05T16:17:42.161Z,24.65
2023-05-05T16:20:11.363Z,24.68
2023-05-05T16:22:39.327Z,24.82
2023-05-05T16:25:08.515Z,24.72
2023-05-05T16:27:38.016Z,24.45
2023-05-05T16:30:07.245Z,24.54
2023-05-05T16:32:35.206Z,24.22
2023-05-05T16:35:03.217Z,23.99
2023-05-05T16:37:31.157Z,23.76
2023-05-05T16:39:59.134Z,23.57
2023-05-05T16:42:27.064Z,23.37
2023-05-05T16:44:56.361Z,23.13
2023-05-05T16:47:24.305Z,22.90
2023-05-05T16:49:52.596Z,22.79
2023-05-05T16:52:20.567Z,22.66
2023-05-05T16:54:55.192Z,22.50
2023-05-05T16:57:23.240Z,22.49
2023-05-05T16:59:51.502Z,22.45
2023-05-05T17:02:20.849Z,22.38
2023-05-05T17:04:48.890Z,22.38
2023-05-05T17:07:16.858Z,22.40
2023-05-05T17:09:44.840Z,22.40
2023-05-05T17:12:12.744Z,22.40
2023-05-05T17:14:41.506Z,22.43
2023-05-05T17:17:10.548Z,22.46
2023-05-05T17:19:39.837Z,22.38
2023-05-05T17:22:07.770Z,22.32
2023-05-05T17:24:35.725Z,22.32
2023-05-05T17:27:03.692Z,22.27
2023-05-05T17:29:32.762Z,22.23
2023-05-05T17:32:00.815Z,22.22
2023-05-05T17:34:28.856Z,22.16
2023-05-05T17:36:58.152Z,22.07
2023-05-05T17:39:26.244Z,22.00
2023-05-05T17:41:54.327Z,21.87
2023-05-05T17:44:22.270Z,21.82
2023-05-05T17:46:50.208Z,21.80
2023-05-05T17:49:18.099Z,21.74
2023-05-05T17:51:45.999Z,22.24
2023-05-05T17:54:15.288Z,22.08
2023-05-05T17:56:43.167Z,21.97
2023-05-05T17:59:11.079Z,21.89
2023-05-05T18:01:39.133Z,21.86
2023-05-05T18:04:07.087Z,21.72
2023-05-05T18:06:35.116Z,21.57
2023-05-05T18:09:03.367Z,21.36
2023-05-05T18:11:32.698Z,21.36
2023-05-05T18:14:00.676Z,21.36
2023-05-05T18:16:28.596Z,21.33
2023-05-05T18:18:56.502Z,21.26
2023-05-05T18:21:24.393Z,21.19
2023-05-05T18:23:57.328Z,21.08
2023-05-05T18:26:29.854Z,20.92
2023-05-05T18:28:59.147Z,20.83
2023-05-05T18:31:27.615Z,20.73
2023-05-05T18:33:55.477Z,20.75
2023-05-05T18:36:23.759Z,21.27
2023-05-05T18:38:51.986Z,21.08
2023-05-05T18:41:19.917Z,20.98
2023-05-05T18:43:47.833Z,20.92
2023-05-05T18:46:17.233Z,20.89
2023-05-05T18:48:45.137Z,20.75
2023-05-05T18:51:13.083Z,20.71
2023-05-05T18:53:41.531Z,20.60
2023-05-05T18:56:09.434Z,20.53
2023-05-05T18:58:37.393Z,20.47
2023-05-05T19:01:05.443Z,20.48
2023-05-05T19:03:34.852Z,20.52
2023-05-05T19:06:06.492Z,20.57
2023-05-05T19:08:34.387Z,20.57
2023-05-05T19:11:02.324Z,20.47
2023-05-05T19:13:30.198Z,20.33
2023-05-05T19:15:58.371Z,20.25
2023-05-05T19:18:26.794Z,20.16
2023-05-05T19:20:56.098Z,20.05
2023-05-05T19:23:23.996Z,19.93
2023-05-05T19:25:52.783Z,19.93
2023-05-05T19:28:20.782Z,19.95
2023-05-05T19:30:49.248Z,19.94
2023-05-05T19:33:17.301Z,19.92
2023-05-05T19:35:45.512Z,19.94
2023-05-05T19:38:14.837Z,19.93
2023-05-05T19:40:42.776Z,19.92
2023-05-05T19:43:10.668Z,19.87
2023-05-05T19:45:38.631Z,19.86
2023-05-05T19:48:07.278Z,19.85
2023-05-05T19:50:35.767Z,19.75
2023-05-05T19:53:04.592Z,19.66
2023-05-05T19:55:33.879Z,19.56
2023-05-05T19:58:01.812Z,19.53
2023-05-05T20:00:29.737Z,19.52
2023-05-05T20:02:57.747Z,19.48
2023-05-05T20:05:26.336Z,19.46
2023-05-05T20:07:54.360Z,19.43
2023-05-05T20:10:22.280Z,19.38
2023-05-05T20:12:51.674Z,19.35
2023-05-05T20:15:21.134Z,19.32
2023-05-05T20:17:49.546Z,19.30
2023-05-05T20:20:20.080Z,19.29
2023-05-05T20:22:49.033Z,19.27
2023-05-05T20:25:17.229Z,19.28
2023-05-05T20:27:45.620Z,19.25
2023-05-05T20:30:15.168Z,19.20
2023-05-05T20:32:43.144Z,19.14
2023-05-05T20:35:12.875Z,19.15
2023-05-05T20:37:40.792Z,19.18
2023-05-05T20:40:10.345Z,19.20
2023-05-05T20:42:38.556Z,19.23
2023-05-05T20:45:07.619Z,19.25
2023-05-05T20:47:37.139Z,19.24
2023-05-05T20:50:05.647Z,19.18
2023-05-05T20:52:34.757Z,19.16
2023-05-05T20:55:02.725Z,19.15
2023-05-05T20:57:30.663Z,19.20
2023-05-05T20:59:58.648Z,19.19
2023-05-05T21:02:26.801Z,19.15
2023-05-05T21:05:02.154Z,19.11
2023-05-05T21:07:31.172Z,19.08
2023-05-05T21:09:59.104Z,19.05
2023-05-05T21:12:27.010Z,19.04
2023-05-05T21:14:56.897Z,19.00
2023-05-05T21:17:24.925Z,18.93
2023-05-05T21:19:53.026Z,18.88
2023-05-05T21:22:22.840Z,18.83
2023-05-05T21:24:51.142Z,18.78
2023-05-05T21:27:19.431Z,18.76
2023-05-05T21:29:47.397Z,18.70
2023-05-05T21:32:15.325Z,18.65
2023-05-05T21:34:43.291Z,18.63
2023-05-05T21:37:12.156Z,18.62
2023-05-05T21:39:41.721Z,18.58
2023-05-05T21:42:09.610Z,18.57
2023-05-05T21:44:37.614Z,18.56
2023-05-05T21:47:06.300Z,18.56
2023-05-05T21:49:34.339Z,18.55
2023-05-05T21:52:02.249Z,18.54
2023-05-05T21:54:30.689Z,18.53
2023-05-05T21:57:00.230Z,18.52
2023-05-05T21:59:28.187Z,18.51
2023-05-05T22:01:56.122Z,18.51
2023-05-05T22:04:24.093Z,18.50
2023-05-05T22:06:52.259Z,18.50
2023-05-05T22:09:20.133Z,18.49
2023-05-05T22:11:48.074Z,18.48
2023-05-05T22:14:17.361Z,18.47
2023-05-05T22:16:45.423Z,18.45
2023-05-05T22:19:13.387Z,18.44
2023-05-05T22:21:41.268Z,18.41
2023-05-05T22:24:09.311Z,18.38
2023-05-05T22:26:39.798Z,18.33
2023-05-05T22:29:07.759Z,18.26
2023-05-05T22:31:37.207Z,18.24
2023-05-05T22:34:05.148Z,18.21
2023-05-05T22:36:33.133Z,18.19
2023-05-05T22:39:01.052Z,18.13
2023-05-05T22:41:28.969Z,18.08
2023-05-05T22:43:57.736Z,18.06
2023-05-05T22:46:25.839Z,18.01
2023-05-05T22:48:55.464Z,18.02
2023-05-05T22:51:23.351Z,18.06
2023-05-05T22:53:51.282Z,18.07
2023-05-05T22:56:19.265Z,18.06
2023-05-05T22:58:47.533Z,18.06
2023-05-05T23:01:15.644Z,18.04
2023-05-05T23:03:43.569Z,18.07
2023-05-05T23:06:12.856Z,18.09
2023-05-05T23:08:41.701Z,18.11
2023-05-05T23:11:09.795Z,18.12
2023-05-05T23:13:37.747Z,18.14
2023-05-05T23:16:06.314Z,18.15
2023-05-05T23:18:35.007Z,18.16
2023-05-05T23:21:02.962Z,18.17
2023-05-05T23:23:32.413Z,18.20
2023-05-05T23:26:00.346Z,18.21
2023-05-05T23:28:28.341Z,18.23
2023-05-05T23:30:56.345Z,18.24
2023-05-05T23:33:24.248Z,18.27
2023-05-05T23:35:52.228Z,18.30
2023-05-05T23:38:20.111Z,18.29
2023-05-05T23:40:49.419Z,18.31
2023-05-05T23:43:17.412Z,18.32
2023-05-05T23:45:45.520Z,18.27
2023-05-05T23:48:13.434Z,18.24
2023-05-05T23:50:41.419Z,18.22
2023-05-05T23:53:09.586Z,18.19
2023-05-05T23:55:37.515Z,18.20
2023-05-05T23:58:06.838Z,18.17
